sensor_id;sensor_type;location;lat;lon;timestamp;P1;durP1;ratioP1;P2;durP2;ratioP2
52888;SDS011;41413;52.770;6.892;2022-07-24T00:02:05;6.22;;;5.30;;
52888;SDS011;41413;52.770;6.892;2022-07-24T00:04:32;6.72;;;4.90;;
52888;SDS011;41413;52.770;6.892;2022-07-24T00:07:01;4.00;;;3.65;;
52888;SDS011;41413;52.770;6.892;2022-07-24T00:09:28;4.65;;;4.32;;
52888;SDS011;41413;52.770;6.892;2022-07-24T00:11:57;6.97;;;4.90;;
52888;SDS011;41413;52.770;6.892;2022-07-24T00:14:25;4.47;;;4.03;;
52888;SDS011;41413;52.770;6.892;2022-07-24T00:16:52;4.68;;;4.28;;
52888;SDS011;41413;52.770;6.892;2022-07-24T00:19:18;4.85;;;4.45;;
52888;SDS011;41413;52.770;6.892;2022-07-24T00:21:45;5.32;;;4.93;;
52888;SDS011;41413;52.770;6.892;2022-07-24T00:24:12;5.80;;;4.40;;
52888;SDS011;41413;52.770;6.892;2022-07-24T00:26:39;5.82;;;4.03;;
52888;SDS011;41413;52.770;6.892;2022-07-24T00:29:05;4.80;;;4.32;;
52888;SDS011;41413;52.770;6.892;2022-07-24T00:31:33;4.65;;;4.25;;
52888;SDS011;41413;52.770;6.892;2022-07-24T00:34:00;4.57;;;4.28;;
52888;SDS011;41413;52.770;6.892;2022-07-24T00:36:28;4.57;;;4.25;;
52888;SDS011;41413;52.770;6.892;2022-07-24T00:38:54;4.13;;;3.83;;
52888;SDS011;41413;52.770;6.892;2022-07-24T00:41:21;5.32;;;4.82;;
52888;SDS011;41413;52.770;6.892;2022-07-24T00:44:04;6.43;;;5.00;;
52888;SDS011;41413;52.770;6.892;2022-07-24T00:46:36;8.38;;;4.80;;
52888;SDS011;41413;52.770;6.892;2022-07-24T00:49:05;7.90;;;5.25;;
52888;SDS011;41413;52.770;6.892;2022-07-24T00:51:44;6.65;;;4.63;;
52888;SDS011;41413;52.770;6.892;2022-07-24T00:54:13;4.68;;;4.35;;
52888;SDS011;41413;52.770;6.892;2022-07-24T00:56:42;8.45;;;5.13;;
52888;SDS011;41413;52.770;6.892;2022-07-24T00:59:10;5.35;;;4.95;;
52888;SDS011;41413;52.770;6.892;2022-07-24T01:01:37;5.20;;;4.32;;
52888;SDS011;41413;52.770;6.892;2022-07-24T01:04:04;4.90;;;4.57;;
52888;SDS011;41413;52.770;6.892;2022-07-24T01:06:31;4.95;;;4.55;;
52888;SDS011;41413;52.770;6.892;2022-07-24T01:08:58;10.50;;;5.05;;
52888;SDS011;41413;52.770;6.892;2022-07-24T01:11:26;7.68;;;5.38;;
52888;SDS011;41413;52.770;6.892;2022-07-24T01:13:53;5.47;;;5.07;;
52888;SDS011;41413;52.770;6.892;2022-07-24T01:16:20;6.45;;;5.20;;
52888;SDS011;41413;52.770;6.892;2022-07-24T01:18:46;5.38;;;4.93;;
52888;SDS011;41413;52.770;6.892;2022-07-24T01:21:13;6.05;;;5.55;;
52888;SDS011;41413;52.770;6.892;2022-07-24T01:23:40;5.35;;;4.85;;
52888;SDS011;41413;52.770;6.892;2022-07-24T01:26:07;6.65;;;4.97;;
52888;SDS011;41413;52.770;6.892;2022-07-24T01:28:34;5.13;;;4.63;;
52888;SDS011;41413;52.770;6.892;2022-07-24T01:31:02;6.25;;;5.75;;
52888;SDS011;41413;52.770;6.892;2022-07-24T01:33:29;6.63;;;5.20;;
52888;SDS011;41413;52.770;6.892;2022-07-24T01:35:56;5.15;;;4.75;;
52888;SDS011;41413;52.770;6.892;2022-07-24T01:38:23;5.43;;;5.03;;
52888;SDS011;41413;52.770;6.892;2022-07-24T01:40:50;5.43;;;5.03;;
52888;SDS011;41413;52.770;6.892;2022-07-24T01:43:17;5.32;;;4.85;;
52888;SDS011;41413;52.770;6.892;2022-07-24T01:45:44;5.85;;;5.43;;
52888;SDS011;41413;52.770;6.892;2022-07-24T01:48:12;5.50;;;5.10;;
52888;SDS011;41413;52.770;6.892;2022-07-24T01:50:39;5.90;;;5.38;;
52888;SDS011;41413;52.770;6.892;2022-07-24T01:53:06;5.47;;;4.97;;
52888;SDS011;41413;52.770;6.892;2022-07-24T01:55:32;5.43;;;4.93;;
52888;SDS011;41413;52.770;6.892;2022-07-24T01:57:59;5.97;;;5.40;;
52888;SDS011;41413;52.770;6.892;2022-07-24T02:00:26;6.22;;;5.72;;
52888;SDS011;41413;52.770;6.892;2022-07-24T02:02:52;5.88;;;5.47;;
52888;SDS011;41413;52.770;6.892;2022-07-24T02:05:19;6.40;;;4.93;;
52888;SDS011;41413;52.770;6.892;2022-07-24T02:07:53;5.85;;;5.20;;
52888;SDS011;41413;52.770;6.892;2022-07-24T02:10:23;6.07;;;5.55;;
52888;SDS011;41413;52.770;6.892;2022-07-24T02:12:50;6.72;;;6.10;;
52888;SDS011;41413;52.770;6.892;2022-07-24T02:15:17;5.82;;;5.32;;
52888;SDS011;41413;52.770;6.892;2022-07-24T02:17:47;5.50;;;5.00;;
52888;SDS011;41413;52.770;6.892;2022-07-24T02:20:18;6.37;;;5.77;;
52888;SDS011;41413;52.770;6.892;2022-07-24T02:22:46;6.85;;;6.05;;
52888;SDS011;41413;52.770;6.892;2022-07-24T02:25:12;5.38;;;4.88;;
52888;SDS011;41413;52.770;6.892;2022-07-24T02:27:40;6.43;;;5.93;;
52888;SDS011;41413;52.770;6.892;2022-07-24T02:30:11;5.95;;;5.45;;
52888;SDS011;41413;52.770;6.892;2022-07-24T02:32:40;5.60;;;5.10;;
52888;SDS011;41413;52.770;6.892;2022-07-24T02:35:07;5.85;;;5.43;;
52888;SDS011;41413;52.770;6.892;2022-07-24T02:37:36;6.18;;;5.63;;
52888;SDS011;41413;52.770;6.892;2022-07-24T02:40:04;6.00;;;5.50;;
52888;SDS011;41413;52.770;6.892;2022-07-24T02:42:33;5.32;;;4.93;;
52888;SDS011;41413;52.770;6.892;2022-07-24T02:45:00;7.85;;;5.95;;
52888;SDS011;41413;52.770;6.892;2022-07-24T02:47:27;6.72;;;6.20;;
52888;SDS011;41413;52.770;6.892;2022-07-24T02:49:53;7.13;;;5.70;;
52888;SDS011;41413;52.770;6.892;2022-07-24T02:52:20;8.88;;;5.90;;
52888;SDS011;41413;52.770;6.892;2022-07-24T02:54:47;6.28;;;5.63;;
52888;SDS011;41413;52.770;6.892;2022-07-24T02:57:14;5.20;;;4.75;;
52888;SDS011;41413;52.770;6.892;2022-07-24T02:59:41;6.78;;;6.15;;
52888;SDS011;41413;52.770;6.892;2022-07-24T03:02:07;9.75;;;6.25;;
52888;SDS011;41413;52.770;6.892;2022-07-24T03:04:34;6.85;;;5.90;;
52888;SDS011;41413;52.770;6.892;2022-07-24T03:07:01;6.07;;;5.30;;
52888;SDS011;41413;52.770;6.892;2022-07-24T03:09:27;6.18;;;5.57;;
52888;SDS011;41413;52.770;6.892;2022-07-24T03:11:54;5.97;;;5.38;;
52888;SDS011;41413;52.770;6.892;2022-07-24T03:14:21;5.90;;;5.38;;
52888;SDS011;41413;52.770;6.892;2022-07-24T03:16:47;9.95;;;5.03;;
52888;SDS011;41413;52.770;6.892;2022-07-24T03:19:14;6.28;;;5.82;;
52888;SDS011;41413;52.770;6.892;2022-07-24T03:21:41;7.18;;;6.13;;
52888;SDS011;41413;52.770;6.892;2022-07-24T03:24:13;6.38;;;5.78;;
52888;SDS011;41413;52.770;6.892;2022-07-24T03:26:41;6.50;;;5.95;;
52888;SDS011;41413;52.770;6.892;2022-07-24T03:29:07;5.55;;;5.07;;
52888;SDS011;41413;52.770;6.892;2022-07-24T03:31:34;9.20;;;6.03;;
52888;SDS011;41413;52.770;6.892;2022-07-24T03:34:01;5.93;;;5.43;;
52888;SDS011;41413;52.770;6.892;2022-07-24T03:36:28;6.13;;;5.18;;
52888;SDS011;41413;52.770;6.892;2022-07-24T03:38:54;5.85;;;5.35;;
52888;SDS011;41413;52.770;6.892;2022-07-24T03:41:21;6.05;;;5.43;;
52888;SDS011;41413;52.770;6.892;2022-07-24T03:43:48;7.03;;;6.43;;
52888;SDS011;41413;52.770;6.892;2022-07-24T03:46:16;6.53;;;5.38;;
52888;SDS011;41413;52.770;6.892;2022-07-24T03:48:43;6.45;;;5.85;;
52888;SDS011;41413;52.770;6.892;2022-07-24T03:51:10;6.82;;;6.22;;
52888;SDS011;41413;52.770;6.892;2022-07-24T03:53:37;6.10;;;5.15;;
52888;SDS011;41413;52.770;6.892;2022-07-24T03:56:07;5.95;;;5.45;;
52888;SDS011;41413;52.770;6.892;2022-07-24T03:58:35;9.80;;;6.20;;
52888;SDS011;41413;52.770;6.892;2022-07-24T04:01:05;6.57;;;5.97;;
52888;SDS011;41413;52.770;6.892;2022-07-24T04:03:32;6.60;;;6.00;;
52888;SDS011;41413;52.770;6.892;2022-07-24T04:06:00;7.18;;;6.47;;
52888;SDS011;41413;52.770;6.892;2022-07-24T04:08:27;7.57;;;5.70;;
52888;SDS011;41413;52.770;6.892;2022-07-24T04:10:54;9.77;;;6.15;;
52888;SDS011;41413;52.770;6.892;2022-07-24T04:13:24;6.65;;;5.72;;
52888;SDS011;41413;52.770;6.892;2022-07-24T04:15:52;6.82;;;6.13;;
52888;SDS011;41413;52.770;6.892;2022-07-24T04:18:19;8.40;;;5.93;;
52888;SDS011;41413;52.770;6.892;2022-07-24T04:20:48;6.20;;;5.65;;
52888;SDS011;41413;52.770;6.892;2022-07-24T04:23:15;9.13;;;5.55;;
52888;SDS011;41413;52.770;6.892;2022-07-24T04:25:44;6.50;;;6.00;;
52888;SDS011;41413;52.770;6.892;2022-07-24T04:28:11;5.85;;;5.35;;
52888;SDS011;41413;52.770;6.892;2022-07-24T04:30:38;7.15;;;6.50;;
52888;SDS011;41413;52.770;6.892;2022-07-24T04:33:05;5.32;;;4.93;;
52888;SDS011;41413;52.770;6.892;2022-07-24T04:35:31;5.97;;;5.47;;
52888;SDS011;41413;52.770;6.892;2022-07-24T04:37:58;11.88;;;5.93;;
52888;SDS011;41413;52.770;6.892;2022-07-24T04:40:25;5.20;;;4.70;;
52888;SDS011;41413;52.770;6.892;2022-07-24T04:42:52;5.57;;;5.18;;
52888;SDS011;41413;52.770;6.892;2022-07-24T04:45:18;6.50;;;6.00;;
52888;SDS011;41413;52.770;6.892;2022-07-24T04:47:45;6.13;;;5.30;;
52888;SDS011;41413;52.770;6.892;2022-07-24T04:50:12;6.03;;;5.53;;
52888;SDS011;41413;52.770;6.892;2022-07-24T04:52:40;7.72;;;5.28;;
52888;SDS011;41413;52.770;6.892;2022-07-24T04:55:07;7.72;;;5.85;;
52888;SDS011;41413;52.770;6.892;2022-07-24T04:57:34;5.10;;;4.80;;
52888;SDS011;41413;52.770;6.892;2022-07-24T05:00:03;6.18;;;5.68;;
52888;SDS011;41413;52.770;6.892;2022-07-24T05:02:31;8.00;;;6.03;;
52888;SDS011;41413;52.770;6.892;2022-07-24T05:04:58;6.45;;;5.15;;
52888;SDS011;41413;52.770;6.892;2022-07-24T05:07:24;7.43;;;6.32;;
52888;SDS011;41413;52.770;6.892;2022-07-24T05:09:51;6.32;;;5.22;;
52888;SDS011;41413;52.770;6.892;2022-07-24T05:12:18;6.30;;;5.70;;
52888;SDS011;41413;52.770;6.892;2022-07-24T05:14:45;5.82;;;5.43;;
52888;SDS011;41413;52.770;6.892;2022-07-24T05:17:12;5.97;;;5.40;;
52888;SDS011;41413;52.770;6.892;2022-07-24T05:19:38;5.93;;;5.43;;
52888;SDS011;41413;52.770;6.892;2022-07-24T05:22:05;6.18;;;5.68;;
52888;SDS011;41413;52.770;6.892;2022-07-24T05:24:32;6.85;;;6.30;;
52888;SDS011;41413;52.770;6.892;2022-07-24T05:26:58;7.38;;;5.70;;
52888;SDS011;41413;52.770;6.892;2022-07-24T05:29:25;7.47;;;6.75;;
52888;SDS011;41413;52.770;6.892;2022-07-24T05:31:52;6.03;;;5.32;;
52888;SDS011;41413;52.770;6.892;2022-07-24T05:34:21;7.05;;;6.43;;
52888;SDS011;41413;52.770;6.892;2022-07-24T05:36:48;6.72;;;6.13;;
52888;SDS011;41413;52.770;6.892;2022-07-24T05:39:15;5.75;;;5.28;;
52888;SDS011;41413;52.770;6.892;2022-07-24T05:41:42;5.95;;;5.47;;
52888;SDS011;41413;52.770;6.892;2022-07-24T05:44:09;7.78;;;6.32;;
52888;SDS011;41413;52.770;6.892;2022-07-24T05:46:36;9.77;;;6.32;;
52888;SDS011;41413;52.770;6.892;2022-07-24T05:49:02;7.30;;;6.65;;
52888;SDS011;41413;52.770;6.892;2022-07-24T05:51:30;6.32;;;5.82;;
52888;SDS011;41413;52.770;6.892;2022-07-24T05:53:56;8.30;;;6.05;;
52888;SDS011;41413;52.770;6.892;2022-07-24T05:56:23;8.20;;;6.65;;
52888;SDS011;41413;52.770;6.892;2022-07-24T05:58:50;7.63;;;6.70;;
52888;SDS011;41413;52.770;6.892;2022-07-24T06:01:17;7.13;;;6.53;;
52888;SDS011;41413;52.770;6.892;2022-07-24T06:03:44;7.88;;;7.18;;
52888;SDS011;41413;52.770;6.892;2022-07-24T06:06:11;10.02;;;5.97;;
52888;SDS011;41413;52.770;6.892;2022-07-24T06:08:37;9.02;;;7.53;;
52888;SDS011;41413;52.770;6.892;2022-07-24T06:11:05;8.68;;;7.88;;
52888;SDS011;41413;52.770;6.892;2022-07-24T06:13:32;7.88;;;7.10;;
52888;SDS011;41413;52.770;6.892;2022-07-24T06:15:59;8.65;;;7.95;;
52888;SDS011;41413;52.770;6.892;2022-07-24T06:18:26;8.10;;;7.40;;
52888;SDS011;41413;52.770;6.892;2022-07-24T06:20:53;7.65;;;6.95;;
52888;SDS011;41413;52.770;6.892;2022-07-24T06:23:20;7.28;;;6.68;;
52888;SDS011;41413;52.770;6.892;2022-07-24T06:25:47;8.60;;;7.82;;
52888;SDS011;41413;52.770;6.892;2022-07-24T06:28:14;9.35;;;7.28;;
52888;SDS011;41413;52.770;6.892;2022-07-24T06:30:41;8.95;;;8.00;;
52888;SDS011;41413;52.770;6.892;2022-07-24T06:33:08;7.53;;;6.93;;
52888;SDS011;41413;52.770;6.892;2022-07-24T06:35:35;8.55;;;7.68;;
52888;SDS011;41413;52.770;6.892;2022-07-24T06:38:01;9.27;;;8.27;;
52888;SDS011;41413;52.770;6.892;2022-07-24T06:40:28;12.45;;;8.25;;
52888;SDS011;41413;52.770;6.892;2022-07-24T06:42:55;10.45;;;9.23;;
52888;SDS011;41413;52.770;6.892;2022-07-24T06:45:22;9.00;;;8.20;;
52888;SDS011;41413;52.770;6.892;2022-07-24T06:47:49;10.50;;;9.55;;
52888;SDS011;41413;52.770;6.892;2022-07-24T06:50:16;9.30;;;8.43;;
52888;SDS011;41413;52.770;6.892;2022-07-24T06:52:43;11.35;;;9.57;;
52888;SDS011;41413;52.770;6.892;2022-07-24T06:55:12;12.00;;;10.85;;
52888;SDS011;41413;52.770;6.892;2022-07-24T06:57:38;12.18;;;9.93;;
52888;SDS011;41413;52.770;6.892;2022-07-24T07:00:06;12.15;;;10.98;;
52888;SDS011;41413;52.770;6.892;2022-07-24T07:02:35;11.32;;;10.43;;
52888;SDS011;41413;52.770;6.892;2022-07-24T07:05:06;12.38;;;10.45;;
52888;SDS011;41413;52.770;6.892;2022-07-24T07:07:34;14.45;;;12.82;;
52888;SDS011;41413;52.770;6.892;2022-07-24T07:10:02;15.25;;;11.60;;
52888;SDS011;41413;52.770;6.892;2022-07-24T07:12:30;14.70;;;11.98;;
52888;SDS011;41413;52.770;6.892;2022-07-24T07:15:03;13.90;;;12.35;;
52888;SDS011;41413;52.770;6.892;2022-07-24T07:17:30;15.60;;;12.07;;
52888;SDS011;41413;52.770;6.892;2022-07-24T07:19:57;13.85;;;12.50;;
52888;SDS011;41413;52.770;6.892;2022-07-24T07:22:24;13.88;;;12.50;;
52888;SDS011;41413;52.770;6.892;2022-07-24T07:24:50;14.85;;;13.20;;
52888;SDS011;41413;52.770;6.892;2022-07-24T07:27:18;18.20;;;11.75;;
52888;SDS011;41413;52.770;6.892;2022-07-24T07:29:45;14.88;;;13.25;;
52888;SDS011;41413;52.770;6.892;2022-07-24T07:32:11;15.07;;;13.55;;
52888;SDS011;41413;52.770;6.892;2022-07-24T07:34:38;15.23;;;13.60;;
52888;SDS011;41413;52.770;6.892;2022-07-24T07:37:05;16.65;;;15.05;;
52888;SDS011;41413;52.770;6.892;2022-07-24T07:39:32;18.67;;;14.63;;
52888;SDS011;41413;52.770;6.892;2022-07-24T07:41:58;16.83;;;13.80;;
52888;SDS011;41413;52.770;6.892;2022-07-24T07:44:25;16.73;;;14.82;;
52888;SDS011;41413;52.770;6.892;2022-07-24T07:46:52;23.25;;;14.63;;
52888;SDS011;41413;52.770;6.892;2022-07-24T07:49:19;17.23;;;13.98;;
52888;SDS011;41413;52.770;6.892;2022-07-24T07:51:46;16.73;;;14.57;;
52888;SDS011;41413;52.770;6.892;2022-07-24T07:54:14;18.95;;;14.55;;
52888;SDS011;41413;52.770;6.892;2022-07-24T07:56:41;20.23;;;15.15;;
52888;SDS011;41413;52.770;6.892;2022-07-24T07:59:08;15.40;;;13.95;;
52888;SDS011;41413;52.770;6.892;2022-07-24T08:01:35;18.05;;;15.45;;
52888;SDS011;41413;52.770;6.892;2022-07-24T08:04:02;22.10;;;16.30;;
52888;SDS011;41413;52.770;6.892;2022-07-24T08:06:29;19.60;;;14.23;;
52888;SDS011;41413;52.770;6.892;2022-07-24T08:08:56;18.70;;;14.75;;
52888;SDS011;41413;52.770;6.892;2022-07-24T08:11:24;17.00;;;15.32;;
52888;SDS011;41413;52.770;6.892;2022-07-24T08:13:53;15.00;;;13.55;;
52888;SDS011;41413;52.770;6.892;2022-07-24T08:16:20;16.38;;;14.02;;
52888;SDS011;41413;52.770;6.892;2022-07-24T08:18:47;15.30;;;13.82;;
52888;SDS011;41413;52.770;6.892;2022-07-24T08:21:17;21.55;;;15.68;;
52888;SDS011;41413;52.770;6.892;2022-07-24T08:23:45;18.63;;;16.73;;
52888;SDS011;41413;52.770;6.892;2022-07-24T08:26:12;19.60;;;16.77;;
52888;SDS011;41413;52.770;6.892;2022-07-24T08:28:39;18.65;;;15.93;;
52888;SDS011;41413;52.770;6.892;2022-07-24T08:31:06;18.17;;;16.35;;
52888;SDS011;41413;52.770;6.892;2022-07-24T08:33:33;19.15;;;17.23;;
52888;SDS011;41413;52.770;6.892;2022-07-24T08:35:59;16.67;;;14.48;;
52888;SDS011;41413;52.770;6.892;2022-07-24T08:38:26;14.85;;;13.52;;
52888;SDS011;41413;52.770;6.892;2022-07-24T08:40:53;15.32;;;13.90;;
52888;SDS011;41413;52.770;6.892;2022-07-24T08:43:20;17.58;;;15.75;;
52888;SDS011;41413;52.770;6.892;2022-07-24T08:45:46;14.73;;;13.35;;
52888;SDS011;41413;52.770;6.892;2022-07-24T08:48:15;16.67;;;13.63;;
52888;SDS011;41413;52.770;6.892;2022-07-24T08:50:43;14.48;;;11.57;;
52888;SDS011;41413;52.770;6.892;2022-07-24T08:53:10;14.45;;;12.95;;
52888;SDS011;41413;52.770;6.892;2022-07-24T08:55:37;14.65;;;11.18;;
52888;SDS011;41413;52.770;6.892;2022-07-24T08:58:04;17.38;;;11.38;;
52888;SDS011;41413;52.770;6.892;2022-07-24T09:00:31;10.68;;;9.60;;
52888;SDS011;41413;52.770;6.892;2022-07-24T09:02:58;10.40;;;9.38;;
52888;SDS011;41413;52.770;6.892;2022-07-24T09:05:26;10.60;;;9.52;;
52888;SDS011;41413;52.770;6.892;2022-07-24T09:08:13;9.20;;;8.35;;
52888;SDS011;41413;52.770;6.892;2022-07-24T09:10:53;9.65;;;8.68;;
52888;SDS011;41413;52.770;6.892;2022-07-24T09:13:28;9.63;;;7.38;;
52888;SDS011;41413;52.770;6.892;2022-07-24T09:16:21;7.85;;;7.15;;
52888;SDS011;41413;52.770;6.892;2022-07-24T09:18:52;8.38;;;7.78;;
52888;SDS011;41413;52.770;6.892;2022-07-24T09:21:41;6.70;;;6.20;;
52888;SDS011;41413;52.770;6.892;2022-07-24T09:24:11;8.10;;;7.30;;
52888;SDS011;41413;52.770;6.892;2022-07-24T09:26:47;7.00;;;6.35;;
52888;SDS011;41413;52.770;6.892;2022-07-24T09:29:16;6.70;;;6.10;;
52888;SDS011;41413;52.770;6.892;2022-07-24T09:31:57;6.75;;;6.25;;
52888;SDS011;41413;52.770;6.892;2022-07-24T09:34:26;9.00;;;5.85;;
52888;SDS011;41413;52.770;6.892;2022-07-24T09:36:58;6.90;;;6.13;;
52888;SDS011;41413;52.770;6.892;2022-07-24T09:39:29;4.93;;;4.53;;
52888;SDS011;41413;52.770;6.892;2022-07-24T09:41:58;6.00;;;5.30;;
52888;SDS011;41413;52.770;6.892;2022-07-24T09:44:26;4.85;;;4.55;;
52888;SDS011;41413;52.770;6.892;2022-07-24T09:47:00;5.35;;;5.05;;
52888;SDS011;41413;52.770;6.892;2022-07-24T09:49:31;7.45;;;5.75;;
52888;SDS011;41413;52.770;6.892;2022-07-24T09:52:06;5.18;;;4.78;;
52888;SDS011;41413;52.770;6.892;2022-07-24T09:54:48;4.45;;;4.13;;
52888;SDS011;41413;52.770;6.892;2022-07-24T09:59:54;4.53;;;4.15;;
52888;SDS011;41413;52.770;6.892;2022-07-24T10:02:28;5.22;;;4.75;;
52888;SDS011;41413;52.770;6.892;2022-07-24T10:04:57;4.43;;;4.13;;
52888;SDS011;41413;52.770;6.892;2022-07-24T10:07:27;4.53;;;3.38;;
52888;SDS011;41413;52.770;6.892;2022-07-24T10:09:57;4.40;;;4.10;;
52888;SDS011;41413;52.770;6.892;2022-07-24T10:12:27;3.58;;;3.38;;
52888;SDS011;41413;52.770;6.892;2022-07-24T10:14:56;5.10;;;4.05;;
52888;SDS011;41413;52.770;6.892;2022-07-24T10:17:28;3.60;;;3.38;;
52888;SDS011;41413;52.770;6.892;2022-07-24T10:20:08;3.78;;;3.58;;
52888;SDS011;41413;52.770;6.892;2022-07-24T10:23:00;4.20;;;3.80;;
52888;SDS011;41413;52.770;6.892;2022-07-24T10:25:30;5.25;;;4.40;;
52888;SDS011;41413;52.770;6.892;2022-07-24T10:28:16;4.95;;;4.60;;
52888;SDS011;41413;52.770;6.892;2022-07-24T10:31:07;5.03;;;4.68;;
52888;SDS011;41413;52.770;6.892;2022-07-24T10:33:36;4.60;;;4.20;;
52888;SDS011;41413;52.770;6.892;2022-07-24T10:36:08;4.10;;;3.83;;
52888;SDS011;41413;52.770;6.892;2022-07-24T10:38:44;5.25;;;4.93;;
52888;SDS011;41413;52.770;6.892;2022-07-24T10:41:23;5.70;;;5.20;;
52888;SDS011;41413;52.770;6.892;2022-07-24T10:47:26;6.00;;;5.50;;
52888;SDS011;41413;52.770;6.892;2022-07-24T10:52:10;4.43;;;3.47;;
52888;SDS011;41413;52.770;6.892;2022-07-24T10:54:47;4.35;;;3.95;;
52888;SDS011;41413;52.770;6.892;2022-07-24T10:57:15;4.30;;;4.00;;
52888;SDS011;41413;52.770;6.892;2022-07-24T10:59:42;4.30;;;4.10;;
52888;SDS011;41413;52.770;6.892;2022-07-24T11:02:27;4.00;;;3.75;;
52888;SDS011;41413;52.770;6.892;2022-07-24T11:10:49;4.20;;;3.85;;
52888;SDS011;41413;52.770;6.892;2022-07-24T11:13:38;4.22;;;3.97;;
52888;SDS011;41413;52.770;6.892;2022-07-24T11:18:40;3.35;;;3.13;;
52888;SDS011;41413;52.770;6.892;2022-07-24T11:21:32;3.63;;;3.42;;
52888;SDS011;41413;52.770;6.892;2022-07-24T11:29:14;4.55;;;4.35;;
52888;SDS011;41413;52.770;6.892;2022-07-24T11:32:06;3.17;;;2.97;;
52888;SDS011;41413;52.770;6.892;2022-07-24T11:34:45;4.55;;;3.20;;
52888;SDS011;41413;52.770;6.892;2022-07-24T11:37:13;3.28;;;3.08;;
52888;SDS011;41413;52.770;6.892;2022-07-24T11:39:41;4.10;;;3.80;;
52888;SDS011;41413;52.770;6.892;2022-07-24T11:42:11;3.72;;;3.53;;
52888;SDS011;41413;52.770;6.892;2022-07-24T11:44:40;4.70;;;4.30;;
52888;SDS011;41413;52.770;6.892;2022-07-24T11:47:12;3.78;;;3.58;;
52888;SDS011;41413;52.770;6.892;2022-07-24T11:54:42;3.60;;;3.40;;
52888;SDS011;41413;52.770;6.892;2022-07-24T11:57:23;3.97;;;3.72;;
52888;SDS011;41413;52.770;6.892;2022-07-24T12:00:13;7.88;;;4.05;;
52888;SDS011;41413;52.770;6.892;2022-07-24T12:02:45;4.05;;;3.85;;
52888;SDS011;41413;52.770;6.892;2022-07-24T12:05:22;5.00;;;4.63;;
52888;SDS011;41413;52.770;6.892;2022-07-24T12:07:54;3.70;;;3.40;;
52888;SDS011;41413;52.770;6.892;2022-07-24T12:10:26;4.68;;;3.70;;
52888;SDS011;41413;52.770;6.892;2022-07-24T12:12:54;5.93;;;3.95;;
52888;SDS011;41413;52.770;6.892;2022-07-24T12:15:24;5.22;;;4.07;;
52888;SDS011;41413;52.770;6.892;2022-07-24T12:17:52;3.63;;;3.45;;
52888;SDS011;41413;52.770;6.892;2022-07-24T12:20:28;4.55;;;4.35;;
52888;SDS011;41413;52.770;6.892;2022-07-24T12:22:57;8.02;;;3.72;;
52888;SDS011;41413;52.770;6.892;2022-07-24T12:25:26;4.03;;;3.83;;
52888;SDS011;41413;52.770;6.892;2022-07-24T12:28:01;4.70;;;4.38;;
52888;SDS011;41413;52.770;6.892;2022-07-24T12:30:31;4.40;;;4.10;;
52888;SDS011;41413;52.770;6.892;2022-07-24T12:33:19;4.60;;;4.30;;
52888;SDS011;41413;52.770;6.892;2022-07-24T12:38:36;4.93;;;4.60;;
52888;SDS011;41413;52.770;6.892;2022-07-24T12:41:08;8.38;;;4.32;;
52888;SDS011;41413;52.770;6.892;2022-07-24T12:46:34;5.13;;;4.82;;
52888;SDS011;41413;52.770;6.892;2022-07-24T12:49:04;4.38;;;3.97;;
52888;SDS011;41413;52.770;6.892;2022-07-24T12:54:21;4.93;;;4.53;;
52888;SDS011;41413;52.770;6.892;2022-07-24T12:56:49;4.70;;;4.43;;
52888;SDS011;41413;52.770;6.892;2022-07-24T12:59:25;5.50;;;4.25;;
52888;SDS011;41413;52.770;6.892;2022-07-24T13:01:57;4.72;;;4.10;;
52888;SDS011;41413;52.770;6.892;2022-07-24T13:04:28;4.50;;;4.20;;
52888;SDS011;41413;52.770;6.892;2022-07-24T13:06:55;7.05;;;4.25;;
52888;SDS011;41413;52.770;6.892;2022-07-24T13:09:24;5.15;;;4.75;;
52888;SDS011;41413;52.770;6.892;2022-07-24T13:11:52;8.57;;;5.15;;
52888;SDS011;41413;52.770;6.892;2022-07-24T13:14:21;4.20;;;3.80;;
52888;SDS011;41413;52.770;6.892;2022-07-24T13:16:49;4.80;;;4.40;;
52888;SDS011;41413;52.770;6.892;2022-07-24T13:19:17;4.20;;;3.92;;
52888;SDS011;41413;52.770;6.892;2022-07-24T13:21:46;7.95;;;4.65;;
52888;SDS011;41413;52.770;6.892;2022-07-24T13:24:14;5.65;;;5.25;;
52888;SDS011;41413;52.770;6.892;2022-07-24T13:26:42;3.92;;;3.65;;
52888;SDS011;41413;52.770;6.892;2022-07-24T13:29:10;4.40;;;4.10;;
52888;SDS011;41413;52.770;6.892;2022-07-24T13:31:38;4.40;;;4.10;;
52888;SDS011;41413;52.770;6.892;2022-07-24T13:34:06;4.20;;;3.83;;
52888;SDS011;41413;52.770;6.892;2022-07-24T13:36:36;3.92;;;3.63;;
52888;SDS011;41413;52.770;6.892;2022-07-24T13:39:05;4.32;;;4.03;;
52888;SDS011;41413;52.770;6.892;2022-07-24T13:41:32;4.93;;;4.55;;
52888;SDS011;41413;52.770;6.892;2022-07-24T13:44:00;4.50;;;4.10;;
52888;SDS011;41413;52.770;6.892;2022-07-24T13:46:27;5.82;;;5.30;;
52888;SDS011;41413;52.770;6.892;2022-07-24T13:48:55;6.03;;;4.43;;
52888;SDS011;41413;52.770;6.892;2022-07-24T13:51:23;3.92;;;3.63;;
52888;SDS011;41413;52.770;6.892;2022-07-24T13:53:51;4.53;;;4.22;;
52888;SDS011;41413;52.770;6.892;2022-07-24T13:56:18;6.00;;;4.70;;
52888;SDS011;41413;52.770;6.892;2022-07-24T13:58:45;4.30;;;4.00;;
52888;SDS011;41413;52.770;6.892;2022-07-24T14:01:12;5.53;;;4.60;;
52888;SDS011;41413;52.770;6.892;2022-07-24T14:03:43;4.55;;;4.05;;
52888;SDS011;41413;52.770;6.892;2022-07-24T14:06:30;4.22;;;3.97;;
52888;SDS011;41413;52.770;6.892;2022-07-24T14:08:58;4.03;;;3.72;;
52888;SDS011;41413;52.770;6.892;2022-07-24T14:11:25;5.03;;;4.53;;
52888;SDS011;41413;52.770;6.892;2022-07-24T14:13:51;3.72;;;3.47;;
52888;SDS011;41413;52.770;6.892;2022-07-24T14:16:18;3.60;;;3.33;;
52888;SDS011;41413;52.770;6.892;2022-07-24T14:18:46;4.50;;;4.20;;
52888;SDS011;41413;52.770;6.892;2022-07-24T14:21:15;5.28;;;4.80;;
52888;SDS011;41413;52.770;6.892;2022-07-24T14:23:41;4.15;;;3.85;;
52888;SDS011;41413;52.770;6.892;2022-07-24T14:26:08;4.70;;;4.35;;
52888;SDS011;41413;52.770;6.892;2022-07-24T14:28:35;5.47;;;4.13;;
52888;SDS011;41413;52.770;6.892;2022-07-24T14:31:01;3.97;;;3.63;;
52888;SDS011;41413;52.770;6.892;2022-07-24T14:33:28;3.50;;;3.30;;
52888;SDS011;41413;52.770;6.892;2022-07-24T14:35:55;4.28;;;3.97;;
52888;SDS011;41413;52.770;6.892;2022-07-24T14:38:21;4.35;;;4.05;;
52888;SDS011;41413;52.770;6.892;2022-07-24T14:40:48;4.63;;;4.28;;
52888;SDS011;41413;52.770;6.892;2022-07-24T14:43:15;4.40;;;4.07;;
52888;SDS011;41413;52.770;6.892;2022-07-24T14:45:41;4.78;;;4.47;;
52888;SDS011;41413;52.770;6.892;2022-07-24T14:48:08;4.65;;;4.35;;
52888;SDS011;41413;52.770;6.892;2022-07-24T14:50:35;4.72;;;4.35;;
52888;SDS011;41413;52.770;6.892;2022-07-24T14:53:02;4.38;;;3.97;;
52888;SDS011;41413;52.770;6.892;2022-07-24T14:55:28;8.65;;;4.03;;
52888;SDS011;41413;52.770;6.892;2022-07-24T14:57:55;3.85;;;3.65;;
52888;SDS011;41413;52.770;6.892;2022-07-24T15:00:22;4.45;;;4.15;;
52888;SDS011;41413;52.770;6.892;2022-07-24T15:02:50;4.80;;;4.25;;
52888;SDS011;41413;52.770;6.892;2022-07-24T15:05:17;3.92;;;3.65;;
52888;SDS011;41413;52.770;6.892;2022-07-24T15:07:44;4.30;;;3.90;;
52888;SDS011;41413;52.770;6.892;2022-07-24T15:10:10;3.92;;;3.60;;
52888;SDS011;41413;52.770;6.892;2022-07-24T15:12:37;5.10;;;3.95;;
52888;SDS011;41413;52.770;6.892;2022-07-24T15:15:04;4.28;;;3.97;;
52888;SDS011;41413;52.770;6.892;2022-07-24T15:17:31;3.95;;;3.75;;
52888;SDS011;41413;52.770;6.892;2022-07-24T15:19:58;4.88;;;4.50;;
52888;SDS011;41413;52.770;6.892;2022-07-24T15:22:24;4.45;;;4.05;;
52888;SDS011;41413;52.770;6.892;2022-07-24T15:24:51;5.22;;;4.82;;
52888;SDS011;41413;52.770;6.892;2022-07-24T15:27:18;4.43;;;4.13;;
52888;SDS011;41413;52.770;6.892;2022-07-24T15:29:45;5.15;;;4.70;;